Time;durP1;ratioP1;P1;durP2;ratioP2;P2;SDS_P1;SDS_P2;PMS_P1;PMS_P2;Temp;Humidity;BMP_temperature;BMP_pressure;BME280_temperature;BME280_humidity;BME280_pressure;Samples;Min_cycle;Max_cycle;Signal;HPM_P1;HPM_P2
2021/05/11 00:00:55;;;;;;;1.70;1.60;;;17.40;99.90;;;;;;4894914;29;21058;-75
2021/05/11 00:03:21;;;;;;;1.80;1.70;;;17.40;99.90;;;;;;4878053;29;20477;-75
2021/05/11 00:05:47;;;;;;;2.00;1.88;;;17.30;99.90;;;;;;4893404;29;20409;-74
2021/05/11 00:08:12;;;;;;;1.73;1.63;;;17.30;99.90;;;;;;4878865;29;20457;-75
2021/05/11 00:10:38;;;;;;;1.63;1.53;;;17.30;99.90;;;;;;4893906;29;20425;-74
2021/05/11 00:13:04;;;;;;;2.75;1.90;;;17.20;99.90;;;;;;4868613;29;20479;-74
2021/05/11 00:15:29;;;;;;;1.90;1.80;;;17.20;99.90;;;;;;4863261;29;20418;-75
2021/05/11 00:17:55;;;;;;;1.67;1.58;;;17.20;99.90;;;;;;4897871;29;20405;-74
2021/05/11 00:20:21;;;;;;;3.00;1.60;;;17.10;99.90;;;;;;4880796;29;20415;-74
2021/05/11 00:22:47;;;;;;;1.90;1.80;;;17.00;99.90;;;;;;4891846;29;20460;-74
2021/05/11 00:25:13;;;;;;;1.83;1.73;;;16.90;99.90;;;;;;4893100;29;20496;-74
2021/05/11 00:27:39;;;;;;;1.90;1.80;;;16.90;99.90;;;;;;4887671;29;21000;-74
2021/05/11 00:30:05;;;;;;;1.83;1.73;;;16.80;99.90;;;;;;4874485;29;20431;-74
2021/05/11 00:32:31;;;;;;;3.80;1.70;;;16.70;99.90;;;;;;4854342;29;20405;-74
2021/05/11 00:34:57;;;;;;;2.00;1.80;;;16.70;99.90;;;;;;4867362;29;20417;-74
2021/05/11 00:37:22;;;;;;;1.70;1.60;;;16.60;99.90;;;;;;4879724;29;20412;-74
2021/05/11 00:39:48;;;;;;;1.77;1.67;;;16.60;99.90;;;;;;4888366;29;20955;-74
2021/05/11 00:42:14;;;;;;;1.60;1.50;;;16.60;99.90;;;;;;4890648;29;20966;-76
2021/05/11 00:44:39;;;;;;;1.75;1.65;;;16.50;99.90;;;;;;4872342;29;20479;-74
2021/05/11 00:47:06;;;;;;;1.70;1.60;;;16.40;99.90;;;;;;4898288;29;20428;-74
2021/05/11 00:49:33;;;;;;;1.67;1.58;;;16.40;99.90;;;;;;4886370;29;20403;-74
2021/05/11 00:51:59;;;;;;;1.90;1.80;;;16.40;99.90;;;;;;4888658;29;20558;-75
2021/05/11 00:54:25;;;;;;;3.50;1.73;;;16.40;99.90;;;;;;4876877;29;20892;-74
2021/05/11 00:56:51;;;;;;;2.00;1.80;;;16.40;99.90;;;;;;4875211;29;20429;-75
2021/05/11 00:59:20;;;;;;;1.70;1.60;;;16.40;99.90;;;;;;4877491;29;20761;-75
2021/05/11 01:01:46;;;;;;;2.15;1.98;;;16.30;99.90;;;;;;4875840;29;20420;-72
2021/05/11 01:04:12;;;;;;;1.77;1.67;;;16.30;99.90;;;;;;4877242;29;20413;-74
2021/05/11 01:06:38;;;;;;;1.70;1.60;;;16.20;99.90;;;;;;4897210;29;20421;-74
2021/05/11 01:09:04;;;;;;;2.20;2.00;;;16.20;99.90;;;;;;4874122;29;20547;-74
2021/05/11 01:11:30;;;;;;;4.50;2.00;;;16.10;99.90;;;;;;4875654;29;20444;-75
2021/05/11 01:13:56;;;;;;;1.80;1.70;;;16.10;99.90;;;;;;4902752;29;20421;-75
2021/05/11 01:16:25;;;;;;;1.92;1.67;;;16.00;99.90;;;;;;4913902;29;20922;-75
2021/05/11 01:18:51;;;;;;;1.98;1.88;;;16.00;99.90;;;;;;4901249;29;20411;-74
2021/05/11 01:24:07;;;;;;;1.60;1.50;;;16.00;99.90;;;;;;4879139;29;20421;-74
2021/05/11 01:26:46;;;;;;;2.17;1.77;;;15.90;99.90;;;;;;4880412;29;20471;-73
2021/05/11 01:56:32;;;;;;;2.25;2.05;;;15.30;99.90;;;;;;4903269;29;20420;-74
2021/05/11 02:22:37;;;;;;;2.08;1.88;;;15.30;99.90;;;;;;4906421;29;20413;-74
2021/05/11 02:24:03;;;;;;;2.15;2.00;;;15.20;99.90;;;;;;4894367;29;20471;-75
2021/05/11 02:26:28;;;;;;;2.33;2.13;;;15.20;99.90;;;;;;4861764;29;20455;-74
2021/05/11 02:28:54;;;;;;;2.30;2.10;;;15.20;99.90;;;;;;4895777;29;20439;-76
2021/05/11 02:31:20;;;;;;;2.03;1.73;;;15.10;99.90;;;;;;4895136;29;20435;-78
2021/05/11 02:33:45;;;;;;;2.40;2.20;;;15.10;99.90;;;;;;4871313;29;20936;-75
2021/05/11 02:36:11;;;;;;;2.28;2.10;;;15.10;99.90;;;;;;4868512;29;20401;-74
2021/05/11 02:38:37;;;;;;;2.47;2.17;;;15.10;99.90;;;;;;4897753;29;20975;-75
2021/05/11 02:41:02;;;;;;;3.00;1.90;;;15.00;99.90;;;;;;4879870;29;20411;-75
2021/05/11 02:43:35;;;;;;;2.38;2.17;;;15.00;99.90;;;;;;4896621;29;20469;-80
2021/05/11 02:46:00;;;;;;;2.30;2.10;;;15.00;99.90;;;;;;4865676;29;20423;-74
2021/05/11 02:48:26;;;;;;;3.80;2.10;;;15.00;99.90;;;;;;4864492;29;20412;-75
2021/05/11 02:50:52;;;;;;;2.20;2.00;;;15.00;99.90;;;;;;4882668;29;20937;-75
2021/05/11 02:53:17;;;;;;;2.40;2.20;;;15.00;99.90;;;;;;4887706;29;20400;-75
2021/05/11 02:55:43;;;;;;;2.33;2.13;;;15.00;99.90;;;;;;4864662;29;20416;-77
2021/05/11 02:58:15;;;;;;;2.50;2.30;;;15.00;99.90;;;;;;4875991;29;20407;-75
2021/05/11 03:00:42;;;;;;;2.20;2.00;;;15.00;99.90;;;;;;4851623;29;21004;-75
2021/05/11 03:03:08;;;;;;;2.15;2.03;;;15.00;99.90;;;;;;4878055;29;20489;-77
2021/05/11 03:05:34;;;;;;;2.30;2.10;;;15.00;99.90;;;;;;4877857;29;20485;-75
2021/05/11 03:07:59;;;;;;;2.20;2.00;;;15.10;99.90;;;;;;4876564;29;20429;-73
2021/05/11 03:10:25;;;;;;;2.15;2.05;;;15.10;99.90;;;;;;4860557;29;20411;-75
2021/05/11 03:12:51;;;;;;;2.60;2.40;;;15.10;99.90;;;;;;4870613;29;20433;-77
2021/05/11 03:15:16;;;;;;;2.60;2.40;;;15.10;99.90;;;;;;4893267;29;20408;-74
2021/05/11 03:17:42;;;;;;;2.70;2.50;;;15.10;99.90;;;;;;4893388;29;20425;-75
2021/05/11 03:20:09;;;;;;;2.70;2.50;;;15.10;99.90;;;;;;4879354;29;20425;-75
2021/05/11 03:22:35;;;;;;;2.20;2.00;;;15.10;99.90;;;;;;4875559;29;20407;-75
2021/05/11 03:25:01;;;;;;;2.63;2.40;;;15.10;99.90;;;;;;4879685;29;20417;-76
2021/05/11 03:27:26;;;;;;;2.60;2.40;;;15.00;99.90;;;;;;4862821;29;20424;-75
2021/05/11 03:29:52;;;;;;;3.43;2.73;;;15.00;99.90;;;;;;4879571;29;20395;-75
2021/05/11 03:32:18;;;;;;;2.50;2.30;;;15.00;99.90;;;;;;4867514;29;20430;-72
2021/05/11 03:34:43;;;;;;;2.77;2.57;;;15.00;99.90;;;;;;4861905;29;20485;-73
2021/05/11 03:37:09;;;;;;;2.47;2.28;;;14.90;99.90;;;;;;4867778;29;20407;-75
2021/05/11 03:39:39;;;;;;;2.43;2.23;;;14.90;99.90;;;;;;4856821;29;20973;-74
2021/05/11 03:44:43;;;;;;;2.85;2.65;;;14.90;99.90;;;;;;4869191;29;20421;-74
2021/05/11 03:47:09;;;;;;;5.60;2.50;;;14.90;99.90;;;;;;4891331;29;20776;-74
2021/05/11 03:49:35;;;;;;;2.80;2.60;;;14.90;99.90;;;;;;4860339;29;20420;-84
2021/05/11 03:52:01;;;;;;;3.00;2.80;;;14.90;99.90;;;;;;4879436;29;20413;-73
2021/05/11 03:54:26;;;;;;;3.60;3.28;;;14.90;99.90;;;;;;4876574;29;20453;-74
2021/05/11 03:56:52;;;;;;;2.83;2.53;;;14.90;99.90;;;;;;4851874;29;20455;-76
2021/05/11 03:59:20;;;;;;;2.90;2.70;;;14.80;99.90;;;;;;4878612;29;20777;-74
2021/05/11 04:01:45;;;;;;;3.67;3.37;;;14.80;99.90;;;;;;4870139;29;20428;-74
2021/05/11 04:04:11;;;;;;;3.72;3.25;;;14.80;99.90;;;;;;4878277;29;21384;-74
2021/05/11 04:06:37;;;;;;;4.20;3.47;;;14.70;99.90;;;;;;4861469;29;20440;-73
2021/05/11 04:09:20;;;;;;;3.13;2.83;;;14.80;99.90;;;;;;4881384;29;20513;-74
2021/05/11 04:16:11;;;;;;;3.57;2.77;;;14.90;99.90;;;;;;4888394;29;20417;-78
2021/05/11 04:17:05;;;;;;;3.60;2.83;;;14.90;99.90;;;;;;4873311;29;20492;-75
2021/05/11 04:19:31;;;;;;;3.20;2.90;;;15.00;99.90;;;;;;4860980;29;20407;-74
2021/05/11 04:21:57;;;;;;;2.60;2.40;;;15.10;99.90;;;;;;4882367;29;20421;-75
2021/05/11 04:24:24;;;;;;;4.00;3.03;;;15.20;99.90;;;;;;4840391;29;20405;-75
2021/05/11 04:26:49;;;;;;;3.00;2.80;;;15.20;99.90;;;;;;4876382;29;20410;-74
2021/05/11 04:29:15;;;;;;;3.53;2.90;;;15.30;99.90;;;;;;4892518;29;20451;-75
2021/05/11 04:31:41;;;;;;;3.20;2.60;;;15.40;99.90;;;;;;4893254;29;20421;-74
2021/05/11 04:34:06;;;;;;;3.03;2.80;;;15.50;99.90;;;;;;4868094;29;20424;-74
2021/05/11 04:36:32;;;;;;;2.45;2.22;;;15.60;99.90;;;;;;4874719;29;20483;-75
2021/05/11 04:38:58;;;;;;;3.50;2.67;;;15.70;99.90;;;;;;4877756;29;20405;-74
2021/05/11 04:41:23;;;;;;;2.90;2.70;;;15.80;99.90;;;;;;4888960;29;20410;-73
2021/05/11 04:43:49;;;;;;;2.57;2.37;;;15.80;99.90;;;;;;4865574;29;20924;-74
2021/05/11 04:48:47;;;;;;;3.08;2.80;;;16.00;99.90;;;;;;4893516;29;20488;-76
2021/05/11 04:51:13;;;;;;;3.10;2.90;;;16.10;99.90;;;;;;4877103;29;20425;-77
2021/05/11 04:53:39;;;;;;;3.13;2.67;;;16.20;99.90;;;;;;4876247;29;20784;-76
2021/05/11 04:56:05;;;;;;;3.00;2.78;;;16.30;99.90;;;;;;4875921;29;20413;-74
2021/05/11 04:58:31;;;;;;;3.63;3.10;;;16.40;99.90;;;;;;4892174;29;20749;-75
2021/05/11 05:01:01;;;;;;;4.20;3.00;;;16.50;99.90;;;;;;4891808;29;20485;-74
2021/05/11 05:03:28;;;;;;;3.75;2.83;;;16.70;99.90;;;;;;4890287;29;20415;-74
2021/05/11 05:05:54;;;;;;;2.60;2.40;;;16.80;99.90;;;;;;4876555;29;20488;-75
2021/05/11 05:08:20;;;;;;;5.28;2.75;;;16.90;99.90;;;;;;4862493;29;20983;-75
2021/05/11 05:10:46;;;;;;;2.50;2.30;;;17.10;99.90;;;;;;4889226;29;20515;-75
2021/05/11 05:13:22;;;;;;;3.10;2.80;;;17.20;99.90;;;;;;4875587;29;20854;-75
2021/05/11 05:15:57;;;;;;;2.83;2.53;;;17.30;99.90;;;;;;4873498;29;20414;-75
2021/05/11 05:18:27;;;;;;;3.80;2.47;;;17.40;99.90;;;;;;4855857;29;20406;-75
2021/05/11 05:20:53;;;;;;;2.83;2.63;;;17.40;99.90;;;;;;4864452;29;21086;-75
2021/05/11 05:23:20;;;;;;;3.83;2.85;;;17.50;99.90;;;;;;4861301;29;20740;-74
2021/05/11 05:25:50;;;;;;;3.90;2.60;;;17.60;99.90;;;;;;4877711;29;20484;-75
2021/05/11 05:28:16;;;;;;;2.63;2.43;;;17.60;99.90;;;;;;4891597;29;20404;-75
2021/05/11 05:30:41;;;;;;;4.50;2.55;;;17.80;99.90;;;;;;4860893;29;20418;-75
2021/05/11 05:33:07;;;;;;;2.60;2.40;;;17.90;99.90;;;;;;4890637;29;20406;-75
2021/05/11 05:35:33;;;;;;;2.80;2.40;;;18.00;99.90;;;;;;4889206;29;20417;-75
2021/05/11 05:37:59;;;;;;;2.90;2.60;;;18.10;99.90;;;;;;4883319;29;20400;-75
2021/05/11 05:40:25;;;;;;;2.92;2.28;;;18.30;99.90;;;;;;4890286;29;20415;-75
2021/05/11 05:42:51;;;;;;;3.55;2.58;;;18.30;99.90;;;;;;4889091;29;21099;-75
2021/05/11 05:45:16;;;;;;;2.97;2.60;;;18.40;99.90;;;;;;4875664;29;20415;-75
2021/05/11 05:47:51;;;;;;;3.50;2.72;;;18.50;99.90;;;;;;4877969;29;20500;-75
2021/05/11 05:50:28;;;;;;;4.20;3.35;;;18.60;99.90;;;;;;4891158;29;20417;-75
2021/05/11 05:53:02;;;;;;;2.97;2.78;;;18.70;99.90;;;;;;4888739;29;20426;-76
2021/05/11 05:55:28;;;;;;;3.72;2.80;;;18.90;99.90;;;;;;4877186;29;20417;-75
2021/05/11 05:57:55;;;;;;;3.85;2.95;;;18.90;99.90;;;;;;4895796;29;20783;-75
2021/05/11 06:00:21;;;;;;;3.92;3.33;;;19.10;99.90;;;;;;4883559;29;20424;-75
2021/05/11 06:02:49;;;;;;;4.63;2.92;;;19.30;99.90;;;;;;4869566;29;20411;-75
2021/05/11 06:05:15;;;;;;;3.35;2.90;;;19.50;99.90;;;;;;4879675;29;21089;-75
2021/05/11 06:07:41;;;;;;;3.15;2.85;;;19.60;99.90;;;;;;4867368;29;20568;-76
2021/05/11 06:10:07;;;;;;;3.10;2.90;;;19.80;99.90;;;;;;4902014;29;20420;-75
2021/05/11 06:12:55;;;;;;;4.90;3.10;;;19.90;99.90;;;;;;4901025;29;20403;-76
2021/05/11 06:18:05;;;;;;;3.10;2.80;;;20.30;99.90;;;;;;4898444;29;20421;-76
2021/05/11 06:20:31;;;;;;;2.90;2.70;;;20.40;99.90;;;;;;4879990;29;20439;-75
2021/05/11 06:22:57;;;;;;;3.40;3.03;;;20.40;99.90;;;;;;4877397;29;20419;-75
2021/05/11 06:25:22;;;;;;;2.85;2.65;;;20.50;99.90;;;;;;4874372;29;20447;-77
2021/05/11 06:27:55;;;;;;;3.10;2.80;;;20.60;99.90;;;;;;4867411;29;20416;-74
2021/05/11 06:30:21;;;;;;;3.20;2.90;;;20.80;99.90;;;;;;4891215;29;20417;-75
2021/05/11 06:32:46;;;;;;;5.25;2.97;;;21.00;99.90;;;;;;4886828;29;20548;-75
2021/05/11 06:35:12;;;;;;;2.80;2.60;;;21.10;99.90;;;;;;4879085;29;21276;-76
2021/05/11 06:37:38;;;;;;;3.10;2.80;;;21.20;99.90;;;;;;4880087;29;20450;-76
2021/05/11 06:40:05;;;;;;;3.03;2.80;;;21.30;99.90;;;;;;4876540;29;20811;-75
2021/05/11 06:42:30;;;;;;;3.95;3.15;;;21.40;99.90;;;;;;4891404;29;20919;-76
2021/05/11 06:45:14;;;;;;;3.30;2.77;;;21.50;99.90;;;;;;4903653;29;20417;-75
2021/05/11 06:50:32;;;;;;;2.60;2.40;;;21.80;99.90;;;;;;4893485;29;20420;-76
2021/05/11 06:53:13;;;;;;;2.83;2.58;;;22.00;99.90;;;;;;4890911;29;20421;-76
2021/05/11 06:55:41;;;;;;;2.78;2.45;;;22.20;99.90;;;;;;4880212;29;20406;-76
2021/05/11 06:58:07;;;;;;;3.72;2.88;;;22.30;99.90;;;;;;4880622;29;20429;-77
2021/05/11 07:00:33;;;;;;;3.05;2.83;;;22.60;99.90;;;;;;4891608;29;20409;-76
2021/05/11 07:03:00;;;;;;;3.13;2.78;;;22.70;99.90;;;;;;4884698;29;20447;-78
2021/05/11 07:05:32;;;;;;;3.93;2.87;;;22.80;99.90;;;;;;4878516;29;20443;-76
2021/05/11 07:08:08;;;;;;;3.47;2.83;;;22.90;99.90;;;;;;4871053;29;20417;-77
2021/05/11 07:10:35;;;;;;;3.00;2.75;;;23.00;99.90;;;;;;4862268;29;20418;-76
2021/05/11 07:13:10;;;;;;;5.88;3.42;;;23.10;99.90;;;;;;4874859;29;20478;-77
2021/05/11 07:15:43;;;;;;;3.22;2.92;;;23.20;99.90;;;;;;4905185;29;20405;-77
2021/05/11 07:18:10;;;;;;;3.42;3.13;;;23.30;99.90;;;;;;4879337;29;20417;-77
2021/05/11 07:20:37;;;;;;;4.15;2.67;;;23.30;99.90;;;;;;4894981;29;20520;-77
2021/05/11 07:23:03;;;;;;;3.33;2.67;;;23.30;99.90;;;;;;4894212;29;20422;-77
2021/05/11 07:25:35;;;;;;;2.87;2.60;;;23.30;99.90;;;;;;4876777;29;20403;-77
2021/05/11 07:30:38;;;;;;;3.35;3.05;;;23.50;99.90;;;;;;4905723;29;20437;-78
2021/05/11 07:33:06;;;;;;;3.00;2.70;;;23.80;99.90;;;;;;4862851;29;20991;-77
2021/05/11 07:35:32;;;;;;;6.10;3.20;;;23.90;99.90;;;;;;4875502;29;20423;-77
2021/05/11 07:37:57;;;;;;;2.77;2.57;;;23.80;99.90;;;;;;4882600;29;20992;-76
2021/05/11 07:40:23;;;;;;;3.10;2.65;;;24.00;99.90;;;;;;4911854;29;20410;-77
2021/05/11 07:42:49;;;;;;;4.33;2.80;;;24.10;99.90;;;;;;4876528;29;20980;-77
2021/05/11 07:45:28;;;;;;;3.65;3.08;;;24.40;99.90;;;;;;4859053;29;20468;-76
2021/05/11 07:50:48;;;;;;;2.70;2.50;;;24.80;99.90;;;;;;4893967;29;20417;-77
2021/05/11 08:02:19;;;;;;;3.65;2.90;;;25.40;99.90;;;;;;4896620;29;20410;-77
2021/05/11 08:15:19;;;;;;;2.88;2.67;;;25.90;99.90;;;;;;4895281;29;21027;-76
2021/05/11 08:17:51;;;;;;;2.50;2.30;;;26.00;99.90;;;;;;4894013;29;20409;-76
2021/05/11 08:28:35;;;;;;;2.97;2.60;;;26.50;99.90;;;;;;4894779;29;20405;-76
2021/05/11 08:31:01;;;;;;;2.95;2.45;;;26.80;99.90;;;;;;4877208;29;20449;-75
2021/05/11 08:33:27;;;;;;;2.60;2.40;;;27.00;99.90;;;;;;4883214;29;20482;-76
2021/05/11 08:35:52;;;;;;;2.97;2.47;;;27.00;99.90;;;;;;4892112;29;20924;-76
2021/05/11 08:38:18;;;;;;;2.40;2.20;;;27.10;99.90;;;;;;4891955;29;20409;-76
2021/05/11 08:40:44;;;;;;;2.27;2.17;;;27.30;99.90;;;;;;4877619;29;20457;-77
2021/05/11 08:43:31;;;;;;;2.40;2.20;;;27.70;99.90;;;;;;4889656;29;20417;-77
2021/05/11 08:46:00;;;;;;;2.60;2.15;;;28.00;99.10;;;;;;4875394;29;20409;-77
2021/05/11 08:48:26;;;;;;;2.90;2.40;;;27.80;98.90;;;;;;4842474;29;20417;-77
2021/05/11 08:50:59;;;;;;;2.15;2.05;;;28.00;99.90;;;;;;4875235;29;20411;-77
2021/05/11 09:07:48;;;;;;;1.80;1.70;;;29.30;92.30;;;;;;4864883;29;21012;-76
2021/05/11 09:23:32;;;;;;;1.60;1.50;;;30.10;90.00;;;;;;4901488;29;20499;-77
2021/05/11 09:29:43;;;;;;;2.30;1.90;;;30.60;86.50;;;;;;4881660;29;20411;-77
2021/05/11 10:47:00;;;;;;;1.67;1.58;;;34.30;55.40;;;;;;4896559;29;21135;-77
2021/05/11 10:49:33;;;;;;;2.95;1.65;;;34.60;55.90;;;;;;4885356;29;20409;-78
2021/05/11 10:52:18;;;;;;;2.60;1.67;;;34.70;53.60;;;;;;4883736;29;20427;-77
2021/05/11 10:55:00;;;;;;;3.38;1.88;;;34.10;53.20;;;;;;4884294;29;20477;-76
2021/05/11 10:57:57;;;;;;;3.20;1.50;;;34.00;53.00;;;;;;4890250;29;20402;-76
2021/05/11 11:03:16;;;;;;;2.93;1.63;;;34.20;52.30;;;;;;4895473;29;20432;-76
2021/05/11 11:06:00;;;;;;;1.88;1.60;;;34.30;53.70;;;;;;4897182;29;20417;-77
2021/05/11 11:08:33;;;;;;;1.50;1.38;;;34.70;52.40;;;;;;4891604;29;20438;-77
2021/05/11 11:11:20;;;;;;;2.50;1.35;;;35.00;51.70;;;;;;4910231;29;20406;-77
2021/05/11 11:13:53;;;;;;;1.83;1.63;;;35.50;52.30;;;;;;4880204;29;20970;-78
2021/05/11 11:16:19;;;;;;;1.85;1.75;;;35.80;52.40;;;;;;4894977;29;20426;-78
2021/05/11 11:18:45;;;;;;;1.90;1.70;;;36.00;49.40;;;;;;4894867;29;20961;-77
2021/05/11 11:23:54;;;;;;;2.90;1.60;;;35.80;49.80;;;;;;4892671;29;20415;-77
2021/05/11 11:26:24;;;;;;;1.63;1.52;;;35.80;51.00;;;;;;4885654;29;20990;-78
2021/05/11 11:28:49;;;;;;;2.15;1.60;;;35.80;49.90;;;;;;4870667;29;20452;-77
2021/05/11 11:31:26;;;;;;;1.40;1.30;;;35.80;51.20;;;;;;4893924;29;20860;-78
2021/05/11 11:33:52;;;;;;;2.00;1.40;;;36.20;49.30;;;;;;4887042;29;20405;-78
2021/05/11 11:36:33;;;;;;;1.73;1.35;;;36.40;49.00;;;;;;4878136;29;20408;-77
2021/05/11 11:39:00;;;;;;;1.67;1.50;;;36.10;47.20;;;;;;4891354;29;20456;-77
2021/05/11 11:41:27;;;;;;;1.48;1.38;;;36.00;50.80;;;;;;4881836;29;20405;-77
2021/05/11 11:43:52;;;;;;;1.88;1.52;;;36.30;47.70;;;;;;4903924;29;20413;-77
2021/05/11 11:46:28;;;;;;;1.40;1.30;;;36.30;48.10;;;;;;4867465;29;20775;-77
2021/05/11 11:49:11;;;;;;;1.52;1.35;;;36.50;49.80;;;;;;4886777;29;20420;-78
2021/05/11 11:51:38;;;;;;;1.80;1.70;;;36.10;47.30;;;;;;4882213;29;20409;-78
2021/05/11 11:54:28;;;;;;;1.58;1.48;;;36.10;49.30;;;;;;4893285;29;20447;-77
2021/05/11 11:59:32;;;;;;;2.03;1.83;;;36.20;47.70;;;;;;4862009;29;20479;-77
2021/05/11 12:02:00;;;;;;;2.33;1.40;;;36.10;46.60;;;;;;4909416;29;20401;-77
2021/05/11 12:04:26;;;;;;;1.58;1.25;;;36.00;47.70;;;;;;4878147;29;20413;-77
2021/05/11 12:06:52;;;;;;;2.63;1.60;;;35.90;46.40;;;;;;4877215;29;20500;-77
2021/05/11 12:09:19;;;;;;;1.48;1.38;;;35.70;47.00;;;;;;4877034;29;20424;-78
2021/05/11 12:11:45;;;;;;;1.10;1.10;;;36.10;45.10;;;;;;4875736;29;20835;-78
2021/05/11 12:14:15;;;;;;;1.77;1.53;;;36.60;48.30;;;;;;4893938;29;20414;-78
2021/05/11 12:16:45;;;;;;;1.70;1.43;;;36.90;47.10;;;;;;4871730;29;20463;-78
2021/05/11 12:19:16;;;;;;;2.10;1.60;;;36.80;44.80;;;;;;4876570;29;20414;-78
2021/05/11 12:22:00;;;;;;;2.85;1.58;;;36.50;43.70;;;;;;4876851;29;20425;-78
2021/05/11 12:24:36;;;;;;;1.80;1.30;;;35.70;44.60;;;;;;4893886;29;20429;-77
2021/05/11 12:27:22;;;;;;;2.22;1.55;;;35.80;46.40;;;;;;4892217;29;20931;-78
2021/05/11 12:29:57;;;;;;;1.80;1.15;;;36.00;46.90;;;;;;4883380;29;21144;-77
2021/05/11 12:32:23;;;;;;;1.73;1.35;;;36.30;47.30;;;;;;4886659;29;20440;-77
2021/05/11 12:35:08;;;;;;;3.07;1.40;;;35.90;45.10;;;;;;4874655;29;20554;-77
2021/05/11 12:37:47;;;;;;;3.10;1.30;;;36.00;46.10;;;;;;4890747;29;20966;-77
2021/05/11 12:40:34;;;;;;;1.60;1.50;;;36.00;42.20;;;;;;4903300;29;20967;-78
2021/05/11 12:43:01;;;;;;;1.67;1.50;;;35.90;43.70;;;;;;4892286;29;20474;-77
2021/05/11 12:45:28;;;;;;;1.90;1.30;;;36.40;44.40;;;;;;4872793;29;20767;-77
2021/05/11 12:48:00;;;;;;;2.10;1.70;;;36.20;45.20;;;;;;4873447;29;20774;-77
2021/05/11 12:50:29;;;;;;;2.13;1.30;;;36.40;43.60;;;;;;4877758;29;20403;-77
2021/05/11 12:52:58;;;;;;;1.63;1.43;;;36.60;45.30;;;;;;4895357;29;20979;-77
2021/05/11 13:01:33;;;;;;;2.30;1.70;;;36.60;46.60;;;;;;4896703;29;21071;-77
2021/05/11 13:04:19;;;;;;;1.42;1.30;;;36.80;44.40;;;;;;4866786;29;21075;-77
2021/05/11 13:13:43;;;;;;;2.07;1.40;;;37.40;43.20;;;;;;4886849;29;20410;-77
2021/05/11 13:20:59;;;;;;;1.60;1.50;;;37.00;43.00;;;;;;4899701;29;20419;-76
2021/05/11 13:26:12;;;;;;;1.50;1.40;;;36.40;43.20;;;;;;4909657;29;20405;-76
2021/05/11 13:31:10;;;;;;;1.55;1.45;;;36.70;44.50;;;;;;4879292;29;20408;-77
2021/05/11 13:34:21;;;;;;;1.77;1.45;;;37.00;41.70;;;;;;4876391;29;20486;-77
2021/05/11 13:36:21;;;;;;;1.53;1.20;;;36.70;43.20;;;;;;4882466;29;20448;-78
2021/05/11 13:38:47;;;;;;;3.90;1.60;;;36.60;44.00;;;;;;4891880;29;20813;-78
2021/05/11 13:41:13;;;;;;;1.75;1.40;;;36.60;42.90;;;;;;4892762;29;20408;-78
2021/05/11 13:43:39;;;;;;;6.57;1.42;;;36.80;44.20;;;;;;4879478;29;20875;-78
2021/05/11 13:46:04;;;;;;;1.40;1.30;;;36.70;42.40;;;;;;4882275;29;20954;-78
2021/05/11 13:48:38;;;;;;;1.43;1.33;;;36.60;44.60;;;;;;4868263;29;20439;-78
2021/05/11 13:53:33;;;;;;;2.20;1.88;;;36.70;44.20;;;;;;4873003;29;20398;-78
2021/05/11 14:03:58;;;;;;;1.73;1.63;;;36.60;43.50;;;;;;4896791;29;20393;-78
2021/05/11 14:06:24;;;;;;;3.00;1.80;;;36.60;44.20;;;;;;4879068;29;20469;-78
2021/05/11 14:08:50;;;;;;;3.75;1.67;;;36.60;44.30;;;;;;4880357;29;20446;-78
2021/05/11 14:11:15;;;;;;;2.58;1.63;;;36.80;43.80;;;;;;4897276;29;20896;-78
2021/05/11 14:13:41;;;;;;;1.75;1.50;;;37.10;42.50;;;;;;4885652;29;20428;-78
2021/05/11 14:16:07;;;;;;;4.50;1.30;;;37.20;40.70;;;;;;4892946;29;20401;-77
2021/05/11 14:18:33;;;;;;;4.47;1.65;;;36.90;41.40;;;;;;4894472;29;20927;-77
2021/05/11 14:20:59;;;;;;;1.55;1.40;;;36.30;42.00;;;;;;4868742;29;21197;-78
2021/05/11 14:23:25;;;;;;;2.03;1.60;;;36.30;43.90;;;;;;4881195;29;20413;-77
2021/05/11 14:25:50;;;;;;;1.60;1.50;;;36.50;43.90;;;;;;4879120;29;20425;-78
2021/05/11 14:28:16;;;;;;;6.40;1.50;;;37.00;43.30;;;;;;4897622;29;20445;-77
2021/05/11 14:30:42;;;;;;;1.95;1.60;;;37.30;45.10;;;;;;4884421;29;20400;-77
2021/05/11 14:33:07;;;;;;;2.72;1.50;;;37.40;43.60;;;;;;4898004;29;20431;-77
2021/05/11 14:35:33;;;;;;;1.70;1.45;;;37.00;41.60;;;;;;4884334;29;20467;-77
2021/05/11 14:37:59;;;;;;;2.53;1.63;;;36.80;41.90;;;;;;4903329;29;20417;-77
2021/05/11 14:40:25;;;;;;;3.90;1.60;;;36.90;43.70;;;;;;4887263;29;20430;-77
2021/05/11 14:42:53;;;;;;;1.50;1.40;;;36.50;41.70;;;;;;4904080;29;20414;-77
2021/05/11 14:45:19;;;;;;;1.50;1.40;;;36.40;43.70;;;;;;4892618;29;20436;-77
2021/05/11 14:47:45;;;;;;;1.53;1.40;;;36.20;43.00;;;;;;4914480;29;20453;-77
2021/05/11 14:50:15;;;;;;;1.33;1.17;;;35.80;43.70;;;;;;4876271;29;20408;-77
2021/05/11 14:52:41;;;;;;;1.73;1.40;;;35.50;43.30;;;;;;4901922;29;20441;-76
2021/05/11 14:55:07;;;;;;;2.38;1.38;;;35.20;44.20;;;;;;4905211;29;20667;-77
2021/05/11 14:57:33;;;;;;;6.07;1.70;;;34.90;43.60;;;;;;4895427;29;20443;-78
2021/05/11 14:59:59;;;;;;;1.40;1.30;;;34.50;45.40;;;;;;4892259;29;20947;-76
2021/05/11 15:02:24;;;;;;;3.03;1.50;;;34.60;44.90;;;;;;4878942;29;20993;-76
2021/05/11 15:04:51;;;;;;;1.80;1.57;;;34.80;45.90;;;;;;4899983;29;20401;-76
2021/05/11 15:07:17;;;;;;;4.38;1.95;;;34.20;43.30;;;;;;4859873;29;20493;-76
2021/05/11 15:09:43;;;;;;;1.92;1.73;;;34.10;46.20;;;;;;4879340;29;21091;-76
2021/05/11 15:12:09;;;;;;;1.67;1.58;;;33.90;46.30;;;;;;4892996;29;20409;-77
2021/05/11 15:14:34;;;;;;;1.83;1.55;;;33.70;45.30;;;;;;4885296;29;20888;-77
2021/05/11 15:19:45;;;;;;;1.60;1.50;;;33.20;45.60;;;;;;4897129;29;20405;-77
2021/05/11 15:22:10;;;;;;;1.75;1.65;;;33.00;45.30;;;;;;4886794;29;20425;-77
2021/05/11 15:24:36;;;;;;;2.15;1.70;;;32.70;45.40;;;;;;4863746;29;20861;-76
2021/05/11 15:27:02;;;;;;;9.47;2.40;;;32.60;45.70;;;;;;4896119;29;20522;-76
2021/05/11 15:29:27;;;;;;;1.50;1.30;;;32.60;46.20;;;;;;4890448;29;20411;-76
2021/05/11 15:31:55;;;;;;;1.85;1.50;;;32.60;46.00;;;;;;4881680;29;20400;-76
2021/05/11 15:34:22;;;;;;;1.42;1.30;;;32.50;46.70;;;;;;4913044;29;20466;-77
2021/05/11 15:36:48;;;;;;;1.38;1.20;;;32.40;47.50;;;;;;4893700;29;20425;-77
2021/05/11 15:39:13;;;;;;;2.20;1.50;;;32.40;48.10;;;;;;4883191;29;20404;-76
2021/05/11 15:41:39;;;;;;;2.00;1.42;;;32.30;47.30;;;;;;4893922;29;20428;-77
2021/05/11 15:44:05;;;;;;;2.33;2.13;;;32.30;48.20;;;;;;4880099;29;20397;-76
2021/05/11 15:46:30;;;;;;;1.95;1.58;;;32.30;47.70;;;;;;4894736;29;20415;-77
2021/05/11 15:48:56;;;;;;;4.80;1.67;;;32.20;47.70;;;;;;4882534;29;20416;-77
2021/05/11 15:51:22;;;;;;;1.73;1.27;;;32.00;47.80;;;;;;4895663;29;20469;-76
2021/05/11 15:53:48;;;;;;;1.73;1.60;;;32.10;48.90;;;;;;4876647;29;20418;-75
2021/05/11 15:56:14;;;;;;;2.58;1.50;;;31.90;48.00;;;;;;4859342;29;20439;-75
2021/05/11 15:58:41;;;;;;;1.43;1.33;;;31.70;47.90;;;;;;4877174;29;20415;-75
2021/05/11 16:01:07;;;;;;;2.55;1.60;;;31.70;48.90;;;;;;4885652;29;20403;-75
2021/05/11 16:03:32;;;;;;;1.40;1.30;;;31.60;48.60;;;;;;4883184;29;20932;-76
2021/05/11 16:05:58;;;;;;;1.10;1.10;;;31.50;47.90;;;;;;4878065;29;20421;-76
2021/05/11 16:08:26;;;;;;;1.10;1.10;;;31.50;49.50;;;;;;4908169;29;20793;-75
2021/05/11 16:10:52;;;;;;;2.28;1.60;;;31.60;50.60;;;;;;4897871;29;21260;-75
2021/05/11 16:13:22;;;;;;;1.83;1.73;;;31.50;51.10;;;;;;4884736;29;20930;-75
2021/05/11 16:15:47;;;;;;;1.40;1.30;;;31.70;50.90;;;;;;4896722;29;20411;-76
2021/05/11 16:18:14;;;;;;;1.80;1.60;;;31.60;49.90;;;;;;4900301;29;20404;-75
2021/05/11 16:20:40;;;;;;;1.90;1.53;;;31.60;49.40;;;;;;4895421;29;20423;-76
2021/05/11 16:23:07;;;;;;;1.90;1.63;;;31.30;50.00;;;;;;4898169;29;20419;-75
2021/05/11 16:25:33;;;;;;;2.92;1.98;;;31.20;48.80;;;;;;4881904;29;20756;-76
2021/05/11 16:28:03;;;;;;;1.60;1.50;;;31.10;49.00;;;;;;4896572;29;20449;-76
2021/05/11 16:30:29;;;;;;;1.40;1.30;;;31.10;49.80;;;;;;4859835;29;20470;-76
2021/05/11 16:32:54;;;;;;;1.60;1.10;;;31.10;50.70;;;;;;4876829;29;20409;-75
2021/05/11 16:35:20;;;;;;;1.37;1.27;;;31.20;49.70;;;;;;4892279;29;20904;-76
2021/05/11 16:37:49;;;;;;;1.55;1.45;;;31.20;49.40;;;;;;4894285;29;20409;-75
2021/05/11 16:40:17;;;;;;;2.90;1.50;;;31.10;47.70;;;;;;4847508;29;20409;-75
2021/05/11 16:42:43;;;;;;;1.20;1.20;;;31.00;48.40;;;;;;4880076;29;20405;-75
2021/05/11 16:45:12;;;;;;;1.75;1.40;;;30.90;48.50;;;;;;4893445;29;20508;-76
2021/05/11 16:47:59;;;;;;;1.27;1.10;;;30.90;49.00;;;;;;4885317;29;20411;-76
2021/05/11 16:50:30;;;;;;;1.30;1.20;;;31.00;49.50;;;;;;4898817;29;20411;-75
2021/05/11 16:52:57;;;;;;;1.33;1.23;;;31.20;48.80;;;;;;4891601;29;20415;-75
2021/05/11 16:55:24;;;;;;;1.20;1.10;;;31.20;47.00;;;;;;4892045;29;20409;-76
2021/05/11 16:57:49;;;;;;;2.20;1.33;;;31.30;48.20;;;;;;4895552;29;20486;-75
2021/05/11 17:00:17;;;;;;;6.63;1.60;;;31.70;47.50;;;;;;4875816;29;21009;-75
2021/05/11 17:02:42;;;;;;;2.28;1.50;;;31.90;47.30;;;;;;4880138;29;20441;-75